createdAt,value
2018-01-05T00:02:56.524Z,61.28
2018-01-05T00:05:26.024Z,61.24
2018-01-05T00:07:56.901Z,61.51
2018-01-05T00:10:29.010Z,61.36
2018-01-05T00:13:00.448Z,61.66
2018-01-05T00:15:30.229Z,61.50
2018-01-05T00:18:00.055Z,61.65
2018-01-05T00:20:30.652Z,61.81
2018-01-05T00:23:00.266Z,61.73
2018-01-05T00:25:29.887Z,61.90
2018-01-05T00:28:02.176Z,60.14
2018-01-05T00:30:32.906Z,59.91
2018-01-05T00:33:04.932Z,60.26
2018-01-05T00:35:35.394Z,60.60
2018-01-05T00:38:10.380Z,60.74
2018-01-05T00:40:41.915Z,61.01
2018-01-05T00:43:14.975Z,61.53
2018-01-05T00:45:45.087Z,61.42
2018-01-05T00:48:17.644Z,61.67
2018-01-05T00:50:46.843Z,61.12
2018-01-05T00:53:16.130Z,61.20
2018-01-05T00:55:48.218Z,61.43
2018-01-05T00:58:18.854Z,60.64
2018-01-05T01:00:48.108Z,60.73
2018-01-05T01:03:17.205Z,60.56
2018-01-05T01:05:46.619Z,60.74
2018-01-05T01:08:16.798Z,60.65
2018-01-05T01:10:48.010Z,60.53
2018-01-05T01:13:18.121Z,61.02
2018-01-05T01:15:47.686Z,60.71
2018-01-05T01:18:18.193Z,60.69
2018-01-05T01:20:47.961Z,60.67
2018-01-05T01:23:17.060Z,60.71
2018-01-05T01:25:48.657Z,60.75
2018-01-05T01:28:20.602Z,60.94
2018-01-05T01:30:49.940Z,61.28
2018-01-05T01:33:19.391Z,61.46
2018-01-05T01:35:49.397Z,61.40
2018-01-05T01:38:19.615Z,61.48
2018-01-05T01:40:50.357Z,61.63
2018-01-05T01:43:20.573Z,61.46
2018-01-05T01:45:49.817Z,61.57
2018-01-05T01:48:23.315Z,61.43
2018-01-05T01:50:52.410Z,61.48
2018-01-05T01:53:21.854Z,61.92
2018-01-05T01:55:52.076Z,61.94
2018-01-05T01:58:21.370Z,62.10
2018-01-05T02:00:50.628Z,62.46
2018-01-05T02:03:20.358Z,62.70
2018-01-05T02:05:51.306Z,62.84
2018-01-05T02:08:23.139Z,62.87
2018-01-05T02:10:52.432Z,63.05
2018-01-05T02:13:22.185Z,62.98
2018-01-05T02:15:51.707Z,62.99
2018-01-05T02:18:22.556Z,63.01
2018-01-05T02:20:52.058Z,63.12
2018-01-05T02:23:22.030Z,63.21
2018-01-05T02:25:52.145Z,63.16
2018-01-05T02:28:23.669Z,63.17
2018-01-05T02:30:53.660Z,63.28
2018-01-05T02:33:23.290Z,63.30
2018-01-05T02:35:52.757Z,63.33
2018-01-05T02:38:21.886Z,63.58
2018-01-05T02:40:51.783Z,63.64
2018-01-05T02:43:20.964Z,63.60
2018-01-05T02:45:50.187Z,63.64
2018-01-05T02:48:21.999Z,63.84
2018-01-05T02:50:52.195Z,63.94
2018-01-05T02:53:21.339Z,64.21
2018-01-05T02:55:50.590Z,64.21
2018-01-05T02:58:22.217Z,64.60
2018-01-05T03:00:52.868Z,64.77
2018-01-05T03:03:22.020Z,65.15
2018-01-05T03:05:51.593Z,65.10
2018-01-05T03:08:22.965Z,65.45
2018-01-05T03:10:52.665Z,65.89
2018-01-05T03:13:22.070Z,66.21
2018-01-05T03:15:51.979Z,66.48
2018-01-05T03:18:23.628Z,66.74
2018-01-05T03:20:53.050Z,67.14
2018-01-05T03:23:22.497Z,67.71
2018-01-05T03:25:53.026Z,68.02
2018-01-05T03:28:22.188Z,68.68
2018-01-05T03:30:53.028Z,68.97
2018-01-05T03:33:22.710Z,69.85
2018-01-05T03:35:51.985Z,69.63
2018-01-05T03:38:23.183Z,70.11
2018-01-05T03:40:53.208Z,69.93
2018-01-05T03:43:22.363Z,69.92
2018-01-05T03:45:51.492Z,69.86
2018-01-05T03:48:21.573Z,69.99
2018-01-05T03:50:51.035Z,69.79
2018-01-05T03:53:20.437Z,69.73
2018-01-05T03:55:50.530Z,69.54
2018-01-05T03:58:20.492Z,69.46
2018-01-05T04:00:49.590Z,69.25
2018-01-05T04:03:19.603Z,69.09
2018-01-05T04:05:48.704Z,69.01
2018-01-05T04:08:21.225Z,68.88
2018-01-05T04:10:51.805Z,68.86
2018-01-05T04:13:21.977Z,68.87
2018-01-05T04:15:52.575Z,68.75
2018-01-05T04:18:23.224Z,68.84
2018-01-05T04:20:52.405Z,68.75
2018-01-05T04:23:21.503Z,68.69
2018-01-05T04:25:50.638Z,68.68
2018-01-05T04:28:20.045Z,68.63
2018-01-05T04:30:50.619Z,68.68
2018-01-05T04:33:21.881Z,68.62
2018-01-05T04:35:51.142Z,68.56
2018-01-05T04:38:23.220Z,68.60
2018-01-05T04:40:52.341Z,68.55
2018-01-05T04:43:22.737Z,68.56
2018-01-05T04:45:52.627Z,68.74
2018-01-05T04:48:24.607Z,68.97
2018-01-05T04:50:53.800Z,69.15
2018-01-05T04:53:23.455Z,69.19
2018-01-05T04:55:52.571Z,69.27
2018-01-05T04:58:24.607Z,69.41
2018-01-05T05:00:53.727Z,69.68
2018-01-05T05:03:23.147Z,69.92
2018-01-05T05:05:52.275Z,70.00
2018-01-05T05:08:24.348Z,70.07
2018-01-05T05:10:54.868Z,70.23
2018-01-05T05:13:26.110Z,70.23
2018-01-05T05:15:57.221Z,70.23
2018-01-05T05:18:26.431Z,70.22
2018-01-05T05:20:55.842Z,70.24
2018-01-05T05:23:25.986Z,70.32
2018-01-05T05:25:55.274Z,70.34
2018-01-05T05:28:25.684Z,70.29
2018-01-05T05:30:56.128Z,70.34
2018-01-05T05:33:27.444Z,70.10
2018-01-05T05:39:10.786Z,70.26
